Latest Weather Observations for Fingal

IDT60801

Issued at 6:51 pm EST Wednesday 30 September 2020 (issued every 10 minutes, with the page automatically refreshed every 10 minutes)

About weather observations | Map of weather stations | Latest weather observations for TAS | Other Formats
Station Details ID: 092012 Name: FINGAL (LEGGE STREET) Lat: -41.64 Lon: 147.97 Height: 237.0 m
Data from the previous 72 hours. | See also: Recent months at Fingal
Date/Time
EST
Temp
°C
App
Temp
°C
Dew
Point
°C
Rel
Hum
%
Delta-T
°C
Wind Press
QNH
hPa
Press
MSL
hPa
Rain since
9am
mm
Dir  Spd
km/h
Gust
km/h
Spd
kts
Gust
kts
30/06:30pm 11.4 8.0 7.5 77 1.9 NE 15 24 8 13 - - 0.0
30/06:00pm 11.4 8.8 7.9 79 1.7 E 11 17 6 9 - - 0.0
30/05:30pm 11.3 8.4 8.2 81 1.5 NE 13 20 7 11 - - 0.0
30/05:00pm 11.1 8.6 8.3 83 1.4 NE 11 17 6 9 - - 0.0
30/04:30pm 11.3 8.1 8.5 83 1.4 NE 15 20 8 11 - - 0.0
30/04:00pm 11.7 8.1 8.2 79 1.7 NNE 17 26 9 14 - - 0.0
30/03:30pm 12.4 9.5 8.1 75 2.1 NNE 13 20 7 11 - - 0.0
30/03:00pm 12.3 8.5 7.4 72 2.4 NNE 17 22 9 12 - - 0.0
30/02:30pm 13.0 9.4 6.8 66 3.0 NNE 15 24 8 13 - - 0.0
30/02:00pm 13.3 9.3 6.6 64 3.3 N 17 26 9 14 - - 0.0
30/01:30pm 13.7 10.0 6.1 60 3.7 NNW 15 35 8 19 - - 0.0
30/01:00pm 14.1 9.6 6.2 59 3.8 NNW 19 30 10 16 - - 0.0
30/12:30pm 14.5 9.4 6.1 57 4.1 NNW 22 35 12 19 - - 0.0
30/12:05pm 15.2 9.5 5.1 51 4.8 NNW 24 54 13 29 - - 0.0
30/12:00pm 15.8 10.2 5.4 50 5.0 NW 24 41 13 22 - - 0.0
30/11:30am 15.6 10.5 5.8 52 4.8 NW 22 37 12 20 - - 0.0
30/11:00am 14.6 11.0 8.3 66 3.2 NNE 17 24 9 13 - - 0.0
30/10:30am 13.6 10.8 8.7 72 2.5 NNE 13 17 7 9 - - 0.0
30/10:00am 12.7 10.8 9.2 79 1.8 NNE 9 17 5 9 - - 0.0
30/09:30am 11.6 10.0 8.6 82 1.5 NE 7 13 4 7 - - 0.0
30/09:00am 10.6 8.7 7.7 82 1.4 N 7 9 4 5 - - 0.0
30/08:30am 10.7 10.2 7.8 82 1.4 CALM 0 0 0 0 - - 0.0
30/08:00am 10.2 9.3 7.8 85 1.2 E 2 7 1 4 - - 0.0
30/07:30am 8.6 7.7 6.2 85 1.1 CALM 0 0 0 0 - - 0.0
30/07:00am 8.6 7.3 6.2 85 1.1 E 2 6 1 3 - - 0.0
30/06:30am 8.3 7.4 5.9 85 1.1 CALM 0 0 0 0 - - 0.0
30/06:00am 8.1 5.8 5.9 86 1.0 SE 7 9 4 5 - - 0.0
30/05:30am 7.6 6.5 5.2 85 1.1 CALM 0 0 0 0 - - 0.0
30/05:00am 7.7 6.3 5.3 85 1.1 ENE 2 7 1 4 - - 0.0
30/04:30am 7.7 6.6 5.2 84 1.1 CALM 0 0 0 0 - - 0.0
30/04:00am 8.0 5.7 4.9 81 1.4 NE 6 9 3 5 - - 0.0
30/03:30am 7.5 6.4 5.0 84 1.1 CALM 0 0 0 0 - - 0.0
30/03:00am 8.0 5.8 5.3 83 1.2 SE 6 7 3 4 - - 0.0
30/02:30am 7.8 5.3 4.9 82 1.3 SSE 7 9 4 5 - - 0.0
30/02:00am 8.0 5.5 4.8 80 1.4 SE 7 9 4 5 - - 0.0
30/01:30am 8.4 5.9 5.0 79 1.5 SE 7 9 4 5 - - 0.0
30/01:00am 7.7 5.2 4.8 82 1.3 SE 7 9 4 5 - - 0.0
30/12:30am 7.7 5.4 5.0 83 1.2 SE 6 7 3 4 - - 0.0
30/12:00am 7.2 4.8 4.2 81 1.3 SE 6 7 3 4 - - 0.0
 
Date/Time
EST
Temp
°C
App
Temp
°C
Dew
Point
°C
Rel
Hum
%
Delta-T
°C
Wind Press
QNH
hPa
Press
MSL
hPa
Rain since
9am
mm
Dir  Spd
km/h
Gust
km/h
Spd
kts
Gust
kts
29/11:30pm 8.2 6.7 4.8 79 1.5 NE 2 7 1 4 - - 0.0
29/11:00pm 8.9 7.8 5.1 77 1.7 CALM 0 6 0 3 - - 0.0
29/10:30pm 9.5 7.3 5.3 75 1.9 NNW 6 9 3 5 - - 0.0
29/10:00pm 9.5 7.1 5.3 75 1.9 NE 7 11 4 6 - - 0.0
29/09:30pm 10.0 7.3 5.6 74 2.0 NE 9 15 5 8 - - 0.0
29/09:00pm 9.5 7.4 5.7 77 1.8 NE 6 9 3 5 - - 0.0
29/08:30pm 9.9 7.8 5.7 75 1.9 NE 6 9 3 5 - - 0.0
29/08:00pm 9.5 7.3 5.3 75 1.9 NNE 6 7 3 4 - - 0.0
29/07:30pm 9.9 7.4 4.9 71 2.3 NE 7 11 4 6 - - 0.0
29/07:00pm 9.8 7.3 4.0 67 2.6 NE 6 9 3 5 - - 0.0
29/06:30pm 10.7 7.5 3.3 60 3.3 N 9 13 5 7 - - 0.0
29/06:00pm 11.5 8.3 3.0 56 3.8 N 9 11 5 6 - - 0.0
29/05:30pm 12.3 8.3 3.0 53 4.1 N 13 20 7 11 - - 0.0
29/05:00pm 12.7 8.8 3.6 54 4.1 N 13 19 7 10 - - 0.0
29/04:30pm 13.1 8.4 3.2 51 4.5 N 17 26 9 14 - - 0.0
29/04:00pm 14.1 9.7 4.7 53 4.4 N 17 24 9 13 - - 0.0
29/03:30pm 14.5 10.0 4.2 50 4.8 N 17 26 9 14 - - 0.0
29/03:00pm 14.0 9.0 3.5 49 4.8 NNE 19 28 10 15 - - 0.0
29/02:30pm 14.2 9.8 4.8 53 4.4 N 17 24 9 13 - - 0.0
29/02:00pm 14.3 9.4 5.1 54 4.4 NNE 20 30 11 16 - - 0.0
29/01:30pm 14.3 9.4 5.1 54 4.4 N 20 28 11 15 - - 0.0
29/01:00pm 14.4 9.0 4.4 51 4.7 N 22 32 12 17 - - 0.0
29/12:30pm 13.5 8.6 4.1 53 4.3 NNE 19 28 10 15 - - 0.0
29/12:00pm 13.2 8.4 4.4 55 4.1 N 19 30 10 16 - - 0.0
29/11:30am 13.5 9.1 4.9 56 4.0 NNW 17 24 9 13 - - 0.0
29/11:00am 12.4 8.6 3.9 56 3.9 N 13 19 7 10 - - 0.0
29/10:30am 12.8 8.2 3.7 54 4.1 NNE 17 26 9 14 - - 0.0
29/10:00am 12.5 8.4 4.5 58 3.7 N 15 26 8 14 - - 0.0
29/09:30am 11.5 8.7 5.2 65 2.9 NE 9 15 5 8 - - 0.0
29/09:00am 10.9 9.7 6.5 74 2.1 NNE 2 7 1 4 - - 0.0
29/08:30am 8.5 6.0 4.9 78 1.6 NNE 7 9 4 5 - - 0.0
29/08:00am 7.1 6.0 5.1 87 0.9 CALM 0 0 0 0 - - 0.0
29/07:30am 5.3 2.9 4.1 92 0.5 NE 6 7 3 4 - - 0.0
29/07:00am 4.8 3.4 3.6 92 0.5 CALM 0 0 0 0 - - 0.0
29/06:30am 4.6 3.2 3.3 91 0.5 CALM 0 2 0 1 - - 0.0
29/06:00am 4.0 2.0 2.5 90 0.6 SW 2 6 1 3 - - 0.0
29/05:30am 3.8 2.2 2.3 90 0.6 CALM 0 0 0 0 - - 0.0
29/05:00am 3.5 1.1 2.0 90 0.6 SW 4 7 2 4 - - 0.0
29/04:30am 3.6 1.5 2.0 89 0.6 WSW 2 7 1 4 - - 0.0
29/04:00am 4.8 2.6 3.1 89 0.7 NNE 4 9 2 5 - - 0.0
29/03:30am 6.2 3.7 4.7 90 0.7 ESE 7 9 4 5 - - 0.0
29/03:00am 6.1 3.8 4.6 90 0.7 ESE 6 7 3 4 - - 0.0
29/02:30am 5.4 4.0 3.7 89 0.7 CALM 0 0 0 0 - - 0.0
29/02:00am 6.0 4.7 4.0 87 0.9 CALM 0 0 0 0 - - 0.0
29/01:30am 6.2 4.1 3.9 85 1.0 NE 4 9 2 5 - - 0.0
29/01:00am 6.9 5.3 4.6 85 1.0 NNE 2 7 1 4 - - 0.0
29/12:30am 7.0 4.5 4.7 85 1.0 ESE 7 7 4 4 - - 0.0
29/12:00am 7.4 4.9 5.0 85 1.1 SE 7 7 4 4 - - 0.0
 
Date/Time
EST
Temp
°C
App
Temp
°C
Dew
Point
°C
Rel
Hum
%
Delta-T
°C
Wind Press
QNH
hPa
Press
MSL
hPa
Rain since
9am
mm
Dir  Spd
km/h
Gust
km/h
Spd
kts
Gust
kts
28/11:30pm 7.1 5.9 4.6 84 1.1 CALM 0 0 0 0 - - 0.0
28/11:00pm 6.7 4.3 4.2 84 1.1 SE 6 7 3 4 - - 0.0
28/10:30pm 6.4 5.1 3.9 84 1.1 CALM 0 0 0 0 - - 0.0
28/10:00pm 6.3 4.9 3.8 84 1.1 CALM 0 0 0 0 - - 0.0
28/09:30pm 6.6 4.4 3.6 81 1.3 SSE 4 7 2 4 - - 0.0
28/09:00pm 6.9 4.2 3.7 80 1.4 SE 7 9 4 5 - - 0.0
28/08:30pm 7.1 4.5 3.3 77 1.6 ESE 6 7 3 4 - - 0.0
28/08:00pm 7.8 5.1 3.7 75 1.8 NNE 7 9 4 5 - - 0.0
28/07:30pm 8.6 5.5 3.6 71 2.2 N 9 15 5 8 - - 0.0
28/07:00pm 9.1 6.1 3.9 70 2.3 NNE 9 13 5 7 - - 0.0
28/06:30pm 9.6 6.1 3.4 65 2.7 NE 11 19 6 10 - - 0.0
28/06:00pm 10.3 6.3 3.1 61 3.2 NE 13 19 7 10 - - 0.0
28/05:30pm 11.0 6.3 3.1 58 3.5 NE 17 26 9 14 - - 0.0
28/05:00pm 11.9 7.2 3.4 56 3.8 NNE 17 26 9 14 - - 0.0
28/04:30pm 12.7 8.9 3.9 55 4.0 NNE 13 22 7 12 - - 0.0
28/04:00pm 13.9 10.1 3.9 51 4.6 NNW 13 24 7 13 - - 0.0
28/03:30pm 15.7 11.1 1.8 39 6.2 WSW 15 26 8 14 - - 0.0
28/03:00pm 15.5 12.1 2.0 40 6.1 SW 9 17 5 9 - - 0.0
28/02:30pm 15.1 10.9 1.6 40 6.0 SW 13 24 7 13 - - 0.0
28/02:00pm 15.1 9.9 2.3 42 5.8 SW 19 26 10 14 - - 0.0
28/01:30pm 14.9 10.4 2.1 42 5.7 SW 15 26 8 14 - - 0.0
28/01:00pm 14.3 9.6 3.2 47 5.1 WSW 17 24 9 13 - - 0.0
28/12:30pm 13.9 9.0 2.2 45 5.2 WSW 17 30 9 16 - - 0.0
28/12:00pm 13.3 8.5 2.5 48 4.8 WSW 17 28 9 15 - - 0.0
28/11:30am 12.9 8.3 1.6 46 4.9 WSW 15 22 8 12 - - 0.0
28/11:00am 12.5 7.5 1.5 47 4.8 SW 17 26 9 14 - - 0.0
28/10:30am 11.7 6.7 1.1 48 4.5 SW 17 28 9 15 - - 0.0
28/10:00am 11.6 6.6 1.5 50 4.3 SW 17 28 9 15 - - 0.0
28/09:30am 11.1 6.0 0.8 49 4.3 SW 17 32 9 17 - - 0.0
28/09:00am 10.6 5.7 2.2 56 3.6 W 17 30 9 16 - - 0.0
28/08:30am 9.5 5.7 1.7 58 3.3 WNW 11 22 6 12 - - 0.0
28/08:00am 7.1 4.3 1.8 69 2.2 NE 6 13 3 7 - - 0.0
28/07:30am 3.9 1.6 0.6 79 1.3 ENE 2 7 1 4 - - 0.0
28/07:00am 1.1 -1.0 -1.0 86 0.8 CALM 0 0 0 0 - - 0.0
28/06:30am 0.3 -1.9 -1.8 86 0.8 CALM 0 7 0 4 - - 0.0
28/06:00am 0.7 -1.5 -1.7 84 0.9 CALM 0 7 0 4 - - 0.0
28/05:30am 0.8 -2.5 -1.6 84 0.9 SE 6 9 3 5 - - 0.0
28/05:00am 1.3 -2.0 -1.3 83 0.9 NNW 6 11 3 6 - - 0.0
28/04:30am 1.4 -2.5 -1.7 80 1.1 SE 9 11 5 6 - - 0.0
28/04:00am 3.0 -0.2 -0.8 76 1.4 W 6 7 3 4 - - 0.0
28/03:30am 3.7 0.0 -0.3 75 1.5 NNW 9 15 5 8 - - 0.0
28/03:00am 2.6 -0.7 -1.0 77 1.3 W 6 11 3 6 - - 0.0
28/02:30am 2.7 -0.1 -0.6 79 1.2 W 4 9 2 5 - - 0.0
28/02:00am 3.5 -0.3 -0.5 75 1.5 N 9 13 5 7 - - 0.0
28/01:30am 3.7 -0.1 -0.7 73 1.6 NW 9 17 5 9 - - 0.0
28/01:00am 4.0 0.6 -0.4 73 1.7 NNW 7 13 4 7 - - 0.0
28/12:30am 5.3 0.8 -0.3 67 2.2 NNW 13 20 7 11 - - 0.0
28/12:00am 5.1 0.6 -0.3 68 2.1 N 13 17 7 9 - - 0.0
 
Date/Time
EST
Temp
°C
App
Temp
°C
Dew
Point
°C
Rel
Hum
%
Delta-T
°C
Wind Press
QNH
hPa
Press
MSL
hPa
Rain since
9am
mm
Dir  Spd
km/h
Gust
km/h
Spd
kts
Gust
kts
27/11:30pm 5.1 1.0 -0.3 68 2.1 N 11 15 6 8 - - 0.0
27/11:00pm 7.4 3.3 -0.5 57 3.1 SSW 11 19 6 10 - - 0.0
27/10:30pm 6.4 2.7 -0.3 62 2.6 NNE 9 13 5 7 - - 0.0
27/10:00pm 6.8 3.5 -0.2 61 2.7 N 7 17 4 9 - - 0.0
27/09:30pm 7.4 4.0 -0.8 56 3.2 WNW 7 17 4 9 - - 0.0
27/09:00pm 8.0 4.2 -1.0 53 3.5 SSW 9 20 5 11 - - 0.0
27/08:30pm 7.7 4.3 -0.8 55 3.3 S 7 24 4 13 - - 0.0
27/08:00pm 8.6 4.3 -1.5 49 3.9 SW 11 19 6 10 - - 0.0
27/07:30pm 8.6 5.1 -1.2 50 3.8 SW 7 19 4 10 - - 0.0
27/07:00pm 9.8 5.1 -1.6 45 4.5 SSW 13 24 7 13 - - 0.0

Other formats

Comma delimited format used in spreadsheet applications
http://www.bom.gov.au/fwo/IDT60801/IDT60801.95974.axf

JavaScript Object Notation format (JSON) in row-major order
http://www.bom.gov.au/fwo/IDT60801/IDT60801.95974.json

Data quality

Most of these data are generated automatically and are frequently updated. Quality checks on data are not normally performed. It is possible for incorrect values to appear. Refer to information at About Latest Weather Observations and please check the disclaimer before using these data.